Terminal Aerodrome Forecast
Issued by NWS Charleston, WV

Current Version | Previous Version | Graphics & Text | Print | Product List | Glossary On
Versions: 1 2 3 4 5 6 7 8 9 10 11 12 13 14 15 16 17 18 19 20 21 22 23 24 25
704
FTUS41 KRLX 230900 AAA
TAFPKB
TAF AMD
KPKB 230900Z 2309/2406 00000KT 4SM BR SCT001
     FM231000 00000KT 2SM BR SCT001
     FM231200 VRB03KT P6SM SCT030
     FM231800 25004KT P6SM SCT045=

USA.gov is the U.S. government's official web portal to all federal, state and local government web resources and services.